createdAt,value
2023-05-15T00:00:48.649Z,954.2169
2023-05-15T00:01:50.402Z,954.2231
2023-05-15T00:02:52.196Z,954.2277
2023-05-15T00:03:53.938Z,954.2177
2023-05-15T00:04:55.712Z,954.2047
2023-05-15T00:05:57.350Z,954.1946
2023-05-15T00:06:59.069Z,954.1754
2023-05-15T00:08:00.785Z,954.1584
2023-05-15T00:09:02.519Z,954.1516
2023-05-15T00:10:04.283Z,954.1469
2023-05-15T00:11:06.030Z,954.1315
2023-05-15T00:12:07.722Z,954.1262
2023-05-15T00:13:09.455Z,954.1161
2023-05-15T00:14:11.198Z,954.1100
2023-05-15T00:15:12.955Z,954.1046
2023-05-15T00:16:14.743Z,954.0916
2023-05-15T00:17:16.405Z,954.0785
2023-05-15T00:18:18.127Z,954.0700
2023-05-15T00:19:19.893Z,954.0623
2023-05-15T00:20:21.623Z,954.0523
2023-05-15T00:21:23.342Z,954.0453
2023-05-15T00:22:25.079Z,954.0431
2023-05-15T00:23:26.796Z,954.0285
2023-05-15T00:24:28.543Z,954.0215
2023-05-15T00:25:30.277Z,954.0215
2023-05-15T00:26:32.021Z,954.0185
2023-05-15T00:27:33.745Z,954.0146
2023-05-15T00:28:36.343Z,954.0154
2023-05-15T00:29:37.196Z,954.0100
2023-05-15T00:30:38.927Z,954.0115
2023-05-15T00:31:40.732Z,954.0123
2023-05-15T00:32:42.460Z,954.0085
2023-05-15T00:33:44.135Z,954.0031
2023-05-15T00:34:45.880Z,953.9992
2023-05-15T00:35:47.616Z,953.9969
2023-05-15T00:36:49.392Z,953.9969
2023-05-15T00:37:51.106Z,953.9977
2023-05-15T00:38:52.833Z,954.0070
2023-05-15T00:39:54.545Z,954.0131
2023-05-15T00:40:56.281Z,954.0200
2023-05-15T00:41:59.496Z,954.0223
2023-05-15T00:43:01.370Z,954.0262
2023-05-15T00:44:01.510Z,954.0254
2023-05-15T00:45:03.243Z,954.0316
2023-05-15T00:46:04.972Z,954.0308
2023-05-15T00:47:06.709Z,954.0453
2023-05-15T00:48:08.444Z,954.0423
2023-05-15T00:49:10.175Z,954.0430
2023-05-15T00:50:11.896Z,954.0438
2023-05-15T00:51:13.634Z,954.0292
2023-05-15T00:52:15.361Z,954.0139
2023-05-15T00:53:17.113Z,954.0008
2023-05-15T00:54:18.881Z,953.9938
2023-05-15T00:55:20.580Z,953.9915
2023-05-15T00:56:22.293Z,953.9946
2023-05-15T00:57:24.032Z,953.9954
2023-05-15T00:58:25.764Z,953.9938
2023-05-15T00:59:27.512Z,953.9930
2023-05-15T01:00:29.246Z,953.9923
2023-05-15T01:01:31.017Z,953.9908
2023-05-15T01:02:32.785Z,953.9962
2023-05-15T01:03:34.471Z,953.9992
2023-05-15T01:04:36.228Z,953.9938
2023-05-15T01:05:37.920Z,953.9985
2023-05-15T01:06:39.653Z,954.0054
2023-05-15T01:07:41.373Z,954.0139
2023-05-15T01:08:43.104Z,954.0316
2023-05-15T01:09:44.873Z,954.0316
2023-05-15T01:10:46.589Z,954.0308
2023-05-15T01:11:48.329Z,954.0408
2023-05-15T01:12:50.038Z,954.0323
2023-05-15T01:13:51.769Z,954.0361
2023-05-15T01:14:53.504Z,954.0438
2023-05-15T01:15:55.277Z,954.0438
2023-05-15T01:16:57.002Z,954.0538
2023-05-15T01:17:58.705Z,954.0592
2023-05-15T01:19:00.483Z,954.0731
2023-05-15T01:20:02.191Z,954.0800
2023-05-15T01:21:03.924Z,954.0839
2023-05-15T01:22:05.662Z,954.0770
2023-05-15T01:23:07.394Z,954.0615
2023-05-15T01:24:09.130Z,954.0515
2023-05-15T01:25:10.827Z,954.0415
2023-05-15T01:26:12.563Z,954.0469
2023-05-15T01:27:14.327Z,954.0438
2023-05-15T01:28:16.023Z,954.0446
2023-05-15T01:29:17.782Z,954.0523
2023-05-15T01:30:19.507Z,954.0492
2023-05-15T01:31:21.249Z,954.0508
2023-05-15T01:32:23.118Z,954.0415
2023-05-15T01:33:24.708Z,954.0285
2023-05-15T01:34:26.424Z,954.0162
2023-05-15T01:35:28.426Z,954.0085
2023-05-15T01:36:29.907Z,954.0023
2023-05-15T01:37:31.619Z,953.9969
2023-05-15T01:38:33.371Z,953.9923
2023-05-15T01:39:35.088Z,953.9908
2023-05-15T01:40:36.847Z,953.9930
2023-05-15T01:41:38.568Z,953.9969
2023-05-15T01:42:40.299Z,954.0023
2023-05-15T01:43:42.045Z,954.0031
2023-05-15T01:44:43.770Z,954.0162
2023-05-15T01:45:45.474Z,954.0239
2023-05-15T01:46:47.289Z,954.0354
2023-05-15T01:47:48.975Z,954.0515
2023-05-15T01:48:50.695Z,954.0592
2023-05-15T01:49:52.404Z,954.0777
2023-05-15T01:50:54.146Z,954.0885
2023-05-15T01:51:55.872Z,954.1069
2023-05-15T01:52:57.610Z,954.1154
2023-05-15T01:53:59.366Z,954.1230
2023-05-15T01:55:01.116Z,954.1230
2023-05-15T01:56:02.803Z,954.1215
2023-05-15T01:57:04.547Z,954.1331
2023-05-15T01:58:06.270Z,954.1469
2023-05-15T01:59:08.038Z,954.1569
2023-05-15T02:00:09.794Z,954.1600
2023-05-15T02:01:11.473Z,954.1554
2023-05-15T02:02:13.214Z,954.1454
2023-05-15T02:03:15.009Z,954.1192
2023-05-15T02:04:16.678Z,954.1053
2023-05-15T02:05:24.773Z,954.0815
2023-05-15T02:07:57.943Z,954.0175
2023-05-15T02:08:59.570Z,954.0085
2023-05-15T02:10:01.309Z,953.9969
2023-05-15T02:11:03.116Z,953.9954
2023-05-15T02:12:04.764Z,954.0146
2023-05-15T02:13:06.524Z,954.0215
2023-05-15T02:14:08.252Z,954.0100
2023-05-15T02:15:09.974Z,953.9930
2023-05-15T02:16:11.878Z,953.9815
2023-05-15T02:17:13.451Z,953.9608
2023-05-15T02:18:15.161Z,953.9570
2023-05-15T02:19:16.964Z,953.9470
2023-05-15T02:20:18.624Z,953.9485
2023-05-15T02:21:20.374Z,953.9377
2023-05-15T02:22:22.190Z,953.9308
2023-05-15T02:23:23.818Z,953.9115
2023-05-15T02:24:25.568Z,953.9031
2023-05-15T02:25:27.300Z,953.9008
2023-05-15T02:26:29.026Z,953.9008
2023-05-15T02:27:30.759Z,953.9031
2023-05-15T02:28:32.562Z,953.8923
2023-05-15T02:29:34.208Z,953.8915
2023-05-15T02:30:35.932Z,953.8831
2023-05-15T02:31:37.718Z,953.8892
2023-05-15T02:32:39.422Z,953.8908
2023-05-15T02:33:41.210Z,953.9046
2023-05-15T02:34:42.859Z,953.9200
2023-05-15T02:35:44.584Z,953.9254
2023-05-15T02:36:46.336Z,953.9254
2023-05-15T02:37:48.083Z,953.9223
2023-05-15T02:38:49.802Z,953.9192
2023-05-15T02:39:51.601Z,953.9200
2023-05-15T02:40:53.244Z,953.9208
2023-05-15T02:41:54.966Z,953.9285
2023-05-15T02:42:56.727Z,953.9300
2023-05-15T02:43:58.451Z,953.9192
2023-05-15T02:45:00.170Z,953.9016
2023-05-15T02:46:02.028Z,953.8877
2023-05-15T02:47:03.622Z,953.8700
2023-05-15T02:48:05.421Z,953.8677
2023-05-15T02:49:07.105Z,953.8654
2023-05-15T02:50:08.835Z,953.8677
2023-05-15T02:51:10.562Z,953.8600
2023-05-15T02:52:12.366Z,953.8523
2023-05-15T02:53:14.027Z,953.8416
2023-05-15T02:54:15.768Z,953.8308
2023-05-15T02:55:17.472Z,953.8270
2023-05-15T02:56:19.201Z,953.8177
2023-05-15T02:57:20.939Z,953.8215
2023-05-15T02:58:22.727Z,953.8054
2023-05-15T02:59:24.413Z,953.8100
2023-05-15T03:00:26.150Z,953.8108
2023-05-15T03:01:27.874Z,953.8138
2023-05-15T03:02:29.606Z,953.8030
2023-05-15T03:03:31.338Z,953.7946
2023-05-15T03:04:33.200Z,953.7892
2023-05-15T03:05:34.803Z,953.7654
2023-05-15T03:06:36.512Z,953.7646
2023-05-15T03:07:38.238Z,953.7754
2023-05-15T03:08:39.968Z,953.7861
2023-05-15T03:09:41.781Z,953.7838
2023-05-15T03:10:43.454Z,953.7938
2023-05-15T03:11:45.166Z,953.7839
2023-05-15T03:12:46.888Z,953.7854
2023-05-15T03:13:48.630Z,953.7938
2023-05-15T03:14:50.364Z,953.8015
2023-05-15T03:15:52.186Z,953.8038
2023-05-15T03:16:53.857Z,953.8030
2023-05-15T03:17:55.574Z,953.8023
2023-05-15T03:18:57.294Z,953.7992
2023-05-15T03:19:59.019Z,953.7923
2023-05-15T03:21:00.751Z,953.7953
2023-05-15T03:22:02.590Z,953.7946
2023-05-15T03:23:04.195Z,953.7862
2023-05-15T03:24:05.915Z,953.7785
2023-05-15T03:25:07.664Z,953.7608
2023-05-15T03:26:09.417Z,953.7592
2023-05-15T03:27:11.125Z,953.7631
2023-05-15T03:28:12.917Z,953.7615
2023-05-15T03:29:14.559Z,953.7592
2023-05-15T03:30:16.289Z,953.7615
2023-05-15T03:31:18.083Z,953.7546
2023-05-15T03:32:19.766Z,953.7523
2023-05-15T03:33:21.493Z,953.7500
2023-05-15T03:34:23.280Z,953.7554
2023-05-15T03:35:25.114Z,953.7677
2023-05-15T03:36:26.653Z,953.7754
2023-05-15T03:37:28.410Z,953.7908
2023-05-15T03:38:30.188Z,953.8015
2023-05-15T03:39:31.841Z,953.8069
2023-05-15T03:40:33.649Z,953.8038
2023-05-15T03:41:35.306Z,953.8030
2023-05-15T03:42:37.043Z,953.7953
2023-05-15T03:43:38.780Z,953.7938
2023-05-15T03:44:40.510Z,953.7985
2023-05-15T03:45:42.210Z,953.8015
2023-05-15T03:46:44.095Z,953.7961
2023-05-15T03:47:45.731Z,953.7877
2023-05-15T03:48:47.427Z,953.7731
2023-05-15T03:49:49.136Z,953.7708
2023-05-15T03:50:50.889Z,953.7861
2023-05-15T03:51:52.630Z,953.7915
2023-05-15T03:52:54.428Z,953.7931
2023-05-15T03:53:56.082Z,953.7816
2023-05-15T03:54:57.789Z,953.7808
2023-05-15T03:55:59.514Z,953.7808
2023-05-15T03:57:01.282Z,953.7877
2023-05-15T03:58:02.998Z,953.7923
2023-05-15T03:59:04.806Z,953.8023
2023-05-15T04:00:06.443Z,953.8130
2023-05-15T04:01:08.182Z,953.8146
2023-05-15T04:02:09.936Z,953.8192
2023-05-15T04:03:11.794Z,953.8300
2023-05-15T04:04:13.390Z,953.8400
2023-05-15T04:06:30.189Z,953.8817
2023-05-15T04:07:31.837Z,953.9084
2023-05-15T04:08:33.553Z,953.9285
2023-05-15T04:09:35.385Z,953.9454
2023-05-15T04:10:37.038Z,953.9577
2023-05-15T04:11:38.777Z,953.9669
2023-05-15T04:12:40.509Z,953.9723
2023-05-15T04:13:42.212Z,953.9792
2023-05-15T04:14:44.126Z,953.9769
2023-05-15T04:15:45.714Z,953.9715
2023-05-15T04:16:47.484Z,953.9785
2023-05-15T04:17:49.171Z,953.9785
2023-05-15T04:18:50.918Z,953.9815
2023-05-15T04:19:52.594Z,953.9908
2023-05-15T04:20:54.432Z,953.9938
2023-05-15T04:21:56.082Z,953.9969
2023-05-15T04:22:57.817Z,954.0015
2023-05-15T04:23:59.521Z,953.9954
2023-05-15T04:25:01.253Z,953.9838
2023-05-15T04:26:02.980Z,953.9792
2023-05-15T04:27:04.910Z,953.9869
2023-05-15T04:28:06.470Z,953.9954
2023-05-15T04:29:08.200Z,954.0085
2023-05-15T04:30:09.941Z,954.0139
2023-05-15T04:31:11.641Z,954.0170
2023-05-15T04:32:13.445Z,954.0123
2023-05-15T04:33:15.248Z,954.0200
2023-05-15T04:34:16.861Z,954.0247
2023-05-15T04:35:18.586Z,954.0300
2023-05-15T04:36:20.302Z,954.0438
2023-05-15T04:37:22.054Z,954.0546
2023-05-15T04:38:23.789Z,954.0477
2023-05-15T04:39:25.604Z,954.0400
2023-05-15T04:40:27.239Z,954.0392
2023-05-15T04:41:28.958Z,954.0446
2023-05-15T04:42:30.694Z,954.0469
2023-05-15T04:43:32.461Z,954.0577
2023-05-15T04:44:34.190Z,954.0585
2023-05-15T04:45:35.960Z,954.0585
2023-05-15T04:46:37.739Z,954.0469
2023-05-15T04:47:39.422Z,954.0392
2023-05-15T04:48:41.104Z,954.0185
2023-05-15T04:49:42.834Z,953.9977
2023-05-15T04:50:44.654Z,953.9769
2023-05-15T04:51:46.360Z,953.9761
2023-05-15T04:52:48.011Z,953.9800
2023-05-15T04:53:49.741Z,953.9769
2023-05-15T04:54:51.496Z,953.9800
2023-05-15T04:55:53.218Z,953.9815
2023-05-15T04:56:54.986Z,953.9830
2023-05-15T04:57:56.663Z,953.9785
2023-05-15T04:58:58.395Z,953.9846
2023-05-15T05:00:00.161Z,953.9815
2023-05-15T05:01:03.894Z,953.9830
2023-05-15T05:02:03.709Z,953.9846
2023-05-15T05:03:05.494Z,953.9930
2023-05-15T05:04:07.139Z,954.0077
2023-05-15T05:05:08.800Z,954.0192
2023-05-15T05:06:10.532Z,954.0262
2023-05-15T05:07:12.242Z,954.0077
2023-05-15T05:08:14.046Z,954.0046
2023-05-15T05:09:15.702Z,954.0038
2023-05-15T05:10:17.423Z,954.0085
2023-05-15T05:11:19.221Z,954.0154
2023-05-15T05:12:20.908Z,954.0262
2023-05-15T05:13:22.629Z,954.0385
2023-05-15T05:14:24.453Z,954.0377
2023-05-15T05:15:26.417Z,954.0392
2023-05-15T05:16:27.920Z,954.0416
2023-05-15T05:17:29.643Z,954.0438
2023-05-15T05:18:31.368Z,954.0423
2023-05-15T05:19:33.025Z,954.0807
2023-05-15T05:20:34.843Z,954.0969
2023-05-15T05:21:36.497Z,954.1085
2023-05-15T05:22:38.239Z,954.1215
2023-05-15T05:23:39.957Z,954.1292
2023-05-15T05:24:41.669Z,954.1308
2023-05-15T05:25:43.495Z,954.1346
2023-05-15T05:26:45.122Z,954.0977
2023-05-15T05:27:46.883Z,954.0808
2023-05-15T05:28:48.603Z,954.0808
2023-05-15T05:29:50.323Z,954.0792
2023-05-15T05:30:52.045Z,954.0862
2023-05-15T05:31:53.924Z,954.1115
2023-05-15T05:32:55.568Z,954.1092
2023-05-15T05:33:57.257Z,954.1115
2023-05-15T05:34:58.979Z,954.1154
2023-05-15T05:36:00.718Z,954.1215
2023-05-15T05:37:02.538Z,954.1262
2023-05-15T05:38:04.173Z,954.1230
2023-05-15T05:39:05.901Z,954.1185
2023-05-15T05:40:07.628Z,954.1185
2023-05-15T05:41:09.363Z,954.1208
2023-05-15T05:42:11.076Z,954.1200
2023-05-15T05:43:12.914Z,954.1270
2023-05-15T05:44:14.543Z,954.1392
2023-05-15T05:45:16.294Z,954.1523
2023-05-15T05:46:18.069Z,954.1646
2023-05-15T05:47:19.748Z,954.1646
2023-05-15T05:51:21.760Z,954.1533
2023-05-15T05:52:23.401Z,954.1653
2023-05-15T05:53:25.157Z,954.1708
2023-05-15T05:54:26.942Z,954.1854
2023-05-15T05:55:28.602Z,954.2000
2023-05-15T05:56:30.333Z,954.2062
2023-05-15T05:57:32.086Z,954.2177
2023-05-15T05:58:33.819Z,954.2292
2023-05-15T05:59:35.622Z,954.2361
2023-05-15T06:00:37.262Z,954.2430
2023-05-15T06:01:38.992Z,954.2538
2023-05-15T06:02:40.887Z,954.2485
2023-05-15T06:03:42.567Z,954.2600
2023-05-15T06:04:44.298Z,954.2747
2023-05-15T06:05:45.991Z,954.2938
2023-05-15T06:06:47.672Z,954.3162
2023-05-15T06:07:49.371Z,954.3323
2023-05-15T06:08:51.127Z,954.3492
2023-05-15T06:09:52.839Z,954.3546
2023-05-15T06:10:54.583Z,954.3623
2023-05-15T06:11:56.376Z,954.3708
2023-05-15T06:12:58.036Z,954.3892
2023-05-15T06:13:59.759Z,954.4008
2023-05-15T06:15:01.506Z,954.4100
2023-05-15T06:16:03.237Z,954.4084
2023-05-15T06:17:05.120Z,954.4153
2023-05-15T06:18:06.720Z,954.4185
2023-05-15T06:19:08.447Z,954.4285
2023-05-15T06:20:10.151Z,954.4315
2023-05-15T06:21:11.994Z,954.4354
2023-05-15T06:22:13.616Z,954.4269
2023-05-15T06:23:15.392Z,954.4408
2023-05-15T06:24:17.087Z,954.4446
2023-05-15T06:25:18.799Z,954.4438
2023-05-15T06:26:20.528Z,954.4547
2023-05-15T06:27:22.237Z,954.4615
2023-05-15T06:28:24.040Z,954.4715
2023-05-15T06:29:25.726Z,954.4823
2023-05-15T06:30:27.549Z,954.4600
2023-05-15T06:31:29.246Z,954.4492
2023-05-15T06:32:32.455Z,954.4377
2023-05-15T06:33:32.662Z,954.4323
2023-05-15T06:34:34.480Z,954.4392
2023-05-15T06:35:36.098Z,954.4323
2023-05-15T06:36:37.817Z,954.4408
2023-05-15T06:37:39.577Z,954.4377
2023-05-15T06:38:41.292Z,954.4423
2023-05-15T06:39:43.004Z,954.4539
2023-05-15T06:40:44.819Z,954.4615
2023-05-15T06:41:46.492Z,954.4746
2023-05-15T06:42:48.213Z,954.4846
2023-05-15T06:43:50.002Z,954.4938
2023-05-15T06:44:51.673Z,954.5015
2023-05-15T06:45:53.421Z,954.5115
2023-05-15T06:46:55.307Z,954.5192
2023-05-15T06:47:58.506Z,954.5208
2023-05-15T06:51:56.565Z,954.4991
2023-05-15T06:52:58.198Z,954.4962
2023-05-15T06:53:59.939Z,954.4892
2023-05-15T06:55:01.771Z,954.4808
2023-05-15T06:56:03.524Z,954.4792
2023-05-15T06:57:05.135Z,954.4785
2023-05-15T06:58:06.884Z,954.4815
2023-05-15T06:59:08.632Z,954.4815
2023-05-15T07:00:10.440Z,954.4885
2023-05-15T07:01:12.102Z,954.5023
2023-05-15T07:02:13.908Z,954.5077
2023-05-15T07:03:15.546Z,954.5185
2023-05-15T07:04:17.312Z,954.5077
2023-05-15T07:05:19.086Z,954.5070
2023-05-15T07:06:20.769Z,954.4946
2023-05-15T07:07:22.495Z,954.4846
2023-05-15T07:08:24.222Z,954.4669
2023-05-15T07:09:25.954Z,954.4646
2023-05-15T07:10:27.967Z,954.4600
2023-05-15T07:11:29.441Z,954.4554
2023-05-15T07:12:31.165Z,954.4515
2023-05-15T07:13:32.880Z,954.4547
2023-05-15T07:14:34.620Z,954.4692
2023-05-15T07:15:36.379Z,954.4954
2023-05-15T07:16:38.094Z,954.4885
2023-05-15T07:17:39.892Z,954.4885
2023-05-15T07:18:41.605Z,954.4985
2023-05-15T07:19:43.286Z,954.5031
2023-05-15T07:20:44.996Z,954.5023
2023-05-15T07:21:46.768Z,954.5123
2023-05-15T07:22:56.417Z,954.5092
2023-05-15T07:23:50.201Z,954.5247
2023-05-15T07:24:51.935Z,954.5392
2023-05-15T07:25:53.680Z,954.5461
2023-05-15T07:26:58.540Z,954.5677
2023-05-15T07:27:57.158Z,954.5785
2023-05-15T07:28:58.857Z,954.5961
2023-05-15T07:30:00.618Z,954.6215
2023-05-15T07:31:03.124Z,954.6447
2023-05-15T07:32:04.111Z,954.6646
2023-05-15T07:33:05.816Z,954.6777
2023-05-15T07:34:07.542Z,954.6885
2023-05-15T07:35:09.244Z,954.6931
2023-05-15T07:36:10.987Z,954.7000
2023-05-15T07:37:13.599Z,954.7047
2023-05-15T07:38:14.551Z,954.7084
2023-05-15T07:39:16.209Z,954.7277
2023-05-15T07:40:17.937Z,954.7315
2023-05-15T07:41:19.662Z,954.7338
2023-05-15T07:42:21.389Z,954.7400
2023-05-15T07:43:23.126Z,954.7438
2023-05-15T07:44:24.832Z,954.7508
2023-05-15T07:45:27.117Z,954.7577
2023-05-15T07:46:28.343Z,954.7600
2023-05-15T07:47:30.075Z,954.7654
2023-05-15T07:48:31.778Z,954.7692
2023-05-15T07:49:33.509Z,954.7670
2023-05-15T07:50:35.221Z,954.7631
2023-05-15T07:51:36.963Z,954.7615
2023-05-15T07:52:38.683Z,954.7631
2023-05-15T07:53:40.442Z,954.7777
2023-05-15T07:54:42.169Z,954.7708
2023-05-15T07:55:43.897Z,954.7670
2023-05-15T07:56:45.608Z,954.7546
2023-05-15T07:57:53.534Z,954.7508
2023-05-15T08:00:04.259Z,954.7308
2023-05-15T08:01:05.946Z,954.7246
2023-05-15T08:02:07.693Z,954.7015
2023-05-15T08:03:09.553Z,954.6838
2023-05-15T08:04:11.112Z,954.6692
2023-05-15T08:05:12.820Z,954.6477
2023-05-15T08:06:14.527Z,954.6262
2023-05-15T08:07:16.290Z,954.6038
2023-05-15T08:08:18.102Z,954.5847
2023-05-15T08:09:19.752Z,954.5770
2023-05-15T08:10:21.465Z,954.5746
2023-05-15T08:11:23.202Z,954.5885
2023-05-15T08:12:25.519Z,954.6053
2023-05-15T08:13:26.688Z,954.6154
2023-05-15T08:14:28.519Z,954.6177
2023-05-15T08:15:30.144Z,954.6146
2023-05-15T08:16:31.902Z,954.5939
2023-05-15T08:17:33.627Z,954.5623
2023-05-15T08:18:35.332Z,954.5300
2023-05-15T08:19:37.048Z,954.5300
2023-05-15T08:20:38.857Z,954.5416
2023-05-15T08:21:40.533Z,954.5692
2023-05-15T08:22:42.245Z,954.5908
2023-05-15T08:23:44.004Z,954.5946
2023-05-15T08:24:45.728Z,954.6115
2023-05-15T08:25:47.540Z,954.6154
2023-05-15T08:26:49.186Z,954.6323
2023-05-15T08:27:50.903Z,954.6400
2023-05-15T08:28:52.639Z,954.6462
2023-05-15T08:29:54.407Z,954.6462
2023-05-15T08:30:56.204Z,954.6423
2023-05-15T08:31:57.939Z,954.6385
2023-05-15T08:32:59.618Z,954.6362
2023-05-15T08:34:01.332Z,954.6285
2023-05-15T08:35:03.032Z,954.6238
2023-05-15T08:36:04.842Z,954.6031
2023-05-15T08:37:06.508Z,954.5931
2023-05-15T08:38:08.323Z,954.5900
2023-05-15T08:39:09.983Z,954.5854
2023-05-15T08:40:11.721Z,954.5739
2023-05-15T08:41:13.441Z,954.5577
2023-05-15T08:42:15.193Z,954.5508
2023-05-15T08:43:16.980Z,954.5408
2023-05-15T08:44:18.659Z,954.5331
2023-05-15T08:45:20.381Z,954.5354
2023-05-15T08:46:22.152Z,954.5361
2023-05-15T08:47:23.826Z,954.5361
2023-05-15T08:48:25.700Z,954.5239
2023-05-15T08:49:27.310Z,954.5108
2023-05-15T08:50:29.041Z,954.4977
2023-05-15T08:51:30.767Z,954.4846
2023-05-15T08:52:32.497Z,954.4600
2023-05-15T08:53:34.259Z,954.4547
2023-05-15T08:54:36.006Z,954.4677
2023-05-15T08:55:37.717Z,954.4600
2023-05-15T08:56:39.447Z,954.4515
2023-05-15T08:57:41.174Z,954.4539
2023-05-15T08:58:42.879Z,954.4500
2023-05-15T08:59:44.640Z,954.4385
2023-05-15T09:00:46.368Z,954.4354
2023-05-15T09:01:48.142Z,954.4292
2023-05-15T09:02:49.933Z,954.4285
2023-05-15T09:03:51.589Z,954.4269
2023-05-15T09:04:53.263Z,954.4269
2023-05-15T09:05:55.034Z,954.4254
2023-05-15T09:06:56.740Z,954.4108
2023-05-15T09:07:58.462Z,954.4084
2023-05-15T09:09:00.269Z,954.3985
2023-05-15T09:10:01.922Z,954.3900
2023-05-15T09:11:03.646Z,954.3762
2023-05-15T09:12:05.361Z,954.3746
2023-05-15T09:13:07.118Z,954.3669
2023-05-15T09:14:08.842Z,954.3685
2023-05-15T09:15:10.557Z,954.3730
2023-05-15T09:16:12.291Z,954.3785
2023-05-15T09:17:14.038Z,954.3708
2023-05-15T09:18:15.744Z,954.3730
2023-05-15T09:19:17.519Z,954.3723
2023-05-15T09:20:19.300Z,954.3700
2023-05-15T09:21:20.952Z,954.3715
2023-05-15T09:22:22.685Z,954.3654
2023-05-15T09:23:24.408Z,954.3685
2023-05-15T09:24:26.110Z,954.3862
2023-05-15T09:25:27.835Z,954.3931
2023-05-15T09:26:29.596Z,954.3970
2023-05-15T09:27:31.302Z,954.3985
2023-05-15T09:28:33.051Z,954.4077
2023-05-15T09:29:34.785Z,954.4115
2023-05-15T09:30:36.529Z,954.4115
2023-05-15T09:31:38.233Z,954.4039
2023-05-15T09:32:39.992Z,954.3939
2023-05-15T09:33:41.713Z,954.3885
2023-05-15T09:34:43.447Z,954.3746
2023-05-15T09:35:45.171Z,954.3730
2023-05-15T09:36:46.899Z,954.3638
2023-05-15T09:37:48.609Z,954.3669
2023-05-15T09:38:50.361Z,954.3615
2023-05-15T09:39:52.081Z,954.3630
2023-05-15T09:40:53.817Z,954.3654
2023-05-15T09:41:55.529Z,954.3685
2023-05-15T09:42:57.283Z,954.3723
2023-05-15T09:43:58.981Z,954.3785
2023-05-15T09:45:00.736Z,954.3762
2023-05-15T09:46:02.518Z,954.3738
2023-05-15T09:47:04.304Z,954.3762
2023-05-15T09:48:05.989Z,954.3839
2023-05-15T09:49:07.639Z,954.3931
2023-05-15T09:50:09.374Z,954.4061
2023-05-15T09:51:11.115Z,954.4138
2023-05-15T09:52:12.840Z,954.4138
2023-05-15T09:53:14.765Z,954.4153
2023-05-15T09:54:16.288Z,954.4092
2023-05-15T09:55:18.013Z,954.3969
2023-05-15T09:56:19.762Z,954.3870
2023-05-15T09:57:21.476Z,954.3738
2023-05-15T09:58:23.203Z,954.3561
2023-05-15T09:59:24.951Z,954.3377
2023-05-15T10:00:26.866Z,954.3246
2023-05-15T10:01:28.403Z,954.3162
2023-05-15T10:02:30.157Z,954.3185
2023-05-15T10:03:31.869Z,954.3270
2023-05-15T10:04:33.569Z,954.3277
2023-05-15T10:05:43.000Z,954.3270
2023-05-15T10:06:37.035Z,954.3154
2023-05-15T10:07:38.750Z,954.3100
2023-05-15T10:08:40.470Z,954.2992
2023-05-15T10:09:42.219Z,954.2900
2023-05-15T10:10:43.987Z,954.2654
2023-05-15T10:11:45.686Z,954.2538
2023-05-15T10:12:48.368Z,954.2408
2023-05-15T10:13:49.111Z,954.2361
2023-05-15T10:14:50.840Z,954.2300
2023-05-15T10:15:52.612Z,954.2261
2023-05-15T10:16:54.425Z,954.2015
2023-05-15T10:17:56.118Z,954.1846
2023-05-15T10:18:57.886Z,954.1692
2023-05-15T10:19:59.500Z,954.1653
2023-05-15T10:21:01.230Z,954.1400
2023-05-15T10:22:02.946Z,954.1292
2023-05-15T10:23:04.679Z,954.1208
2023-05-15T10:24:06.433Z,954.1100
2023-05-15T10:25:08.159Z,954.1108
2023-05-15T10:26:09.855Z,954.0723
2023-05-15T10:27:11.602Z,954.0877
2023-05-15T10:28:13.311Z,954.1046
2023-05-15T10:29:15.076Z,954.0984
2023-05-15T10:30:16.795Z,954.0877
2023-05-15T10:31:18.523Z,954.0746
2023-05-15T10:32:20.230Z,954.0670
2023-05-15T10:33:21.965Z,954.0585
2023-05-15T10:34:23.711Z,954.0377
2023-05-15T10:35:25.445Z,954.0269
2023-05-15T10:36:27.172Z,954.0177
2023-05-15T10:37:28.895Z,954.0077
2023-05-15T10:38:30.612Z,953.9946
2023-05-15T10:39:32.361Z,953.9908
2023-05-15T10:40:34.092Z,953.9800
2023-05-15T10:41:35.823Z,953.9654
2023-05-15T10:42:37.522Z,953.9639
2023-05-15T10:43:39.259Z,953.9531
2023-05-15T10:44:40.983Z,953.9438
2023-05-15T10:45:42.753Z,953.9215
2023-05-15T10:46:44.517Z,953.9100
2023-05-15T10:47:46.233Z,953.8985
2023-05-15T10:48:47.902Z,953.8915
2023-05-15T10:49:49.621Z,953.8770
2023-05-15T10:50:51.380Z,953.8592
2023-05-15T10:51:53.080Z,953.8461
2023-05-15T10:52:54.843Z,953.8461
2023-05-15T10:53:56.575Z,953.8446
2023-05-15T10:54:58.327Z,953.8416
2023-05-15T10:56:00.034Z,953.8354
2023-05-15T10:57:01.816Z,953.8200
2023-05-15T10:58:03.482Z,953.8115
2023-05-15T10:59:05.198Z,953.8130
2023-05-15T11:00:06.938Z,953.8215
2023-05-15T11:01:08.670Z,953.8162
2023-05-15T11:02:10.394Z,953.8115
2023-05-15T11:03:12.153Z,953.8000
2023-05-15T11:04:13.922Z,953.7938
2023-05-15T11:05:15.587Z,953.7900
2023-05-15T11:06:17.308Z,953.7869
2023-05-15T11:07:19.028Z,953.7930
2023-05-15T11:08:20.857Z,953.7953
2023-05-15T11:09:22.561Z,953.7961
2023-05-15T11:10:24.405Z,953.7869
2023-05-15T11:11:25.954Z,953.7808
2023-05-15T11:12:27.713Z,953.7877
2023-05-15T11:13:29.409Z,953.7792
2023-05-15T11:14:31.116Z,953.7800
2023-05-15T11:15:32.845Z,953.7739
2023-05-15T11:16:34.611Z,953.7708
2023-05-15T11:17:36.359Z,953.7739
2023-05-15T11:18:38.059Z,953.7615
2023-05-15T11:19:39.760Z,953.7600
2023-05-15T11:20:41.500Z,953.7531
2023-05-15T11:21:43.208Z,953.7438
2023-05-15T11:22:44.955Z,953.7223
2023-05-15T11:23:46.682Z,953.7039
2023-05-15T11:24:48.426Z,953.6823
2023-05-15T11:25:50.140Z,953.6546
2023-05-15T11:26:51.855Z,953.6469
2023-05-15T11:27:53.592Z,953.6362
2023-05-15T11:28:55.318Z,953.6177
2023-05-15T11:29:57.049Z,953.6115
2023-05-15T11:30:58.793Z,953.6130
2023-05-15T11:32:00.500Z,953.6108
2023-05-15T11:33:02.266Z,953.6069
2023-05-15T11:34:03.977Z,953.5961
2023-05-15T11:35:05.689Z,953.5884
2023-05-15T11:36:07.425Z,953.5677
2023-05-15T11:37:09.187Z,953.5531
2023-05-15T11:38:10.932Z,953.5685
2023-05-15T11:39:12.604Z,953.5523
2023-05-15T11:40:14.341Z,953.5546
2023-05-15T11:41:16.055Z,953.5638
2023-05-15T11:42:17.815Z,953.5685
2023-05-15T11:43:19.537Z,953.5600
2023-05-15T11:44:21.263Z,953.5461
2023-05-15T11:45:23.017Z,953.5430
2023-05-15T11:46:24.737Z,953.5085
2023-05-15T11:47:26.452Z,953.5308
2023-05-15T11:48:28.191Z,953.5215
2023-05-15T11:49:29.911Z,953.5200
2023-05-15T11:50:31.626Z,953.5100
2023-05-15T11:51:33.358Z,953.4992
2023-05-15T11:52:35.139Z,953.4769
2023-05-15T11:53:36.837Z,953.4708
2023-05-15T11:54:38.557Z,953.4500
2023-05-15T11:55:40.267Z,953.4330
2023-05-15T11:56:42.019Z,953.3946
2023-05-15T11:57:43.749Z,953.3715
2023-05-15T11:58:45.463Z,953.3531
2023-05-15T11:59:47.256Z,953.3408
2023-05-15T12:00:48.918Z,953.3292
2023-05-15T12:01:50.768Z,953.3484
2023-05-15T12:02:52.568Z,953.3553
2023-05-15T12:03:54.612Z,953.3708
2023-05-15T12:04:55.965Z,953.3661
2023-05-15T12:06:00.087Z,953.3623
2023-05-15T12:07:00.480Z,953.3661
2023-05-15T12:08:01.126Z,953.3823
2023-05-15T12:09:02.865Z,953.3885
2023-05-15T12:10:04.592Z,953.3823
2023-05-15T12:11:06.321Z,953.3770
2023-05-15T12:12:08.077Z,953.3870
2023-05-15T12:13:09.783Z,953.3839
2023-05-15T12:14:11.538Z,953.3854
2023-05-15T12:15:13.237Z,953.3900